MFX89 UZTT-UZNU
Flight info
| Callsign | MFX89 |
|---|---|
| Flight time | N/A |
| Altitude | 34000 |
| Route | DIBAD N193 LAPZE Y720 DIKNA |
| Aircraft | A320/M-SDE3FGHIRWY/LB1 |
Departure
| Time | 2026-04-25 09:19 |
|---|---|
| Airport | Tashkent International Airport (UZTT) |
Arrival
| Time | N/A |
|---|---|
| Airport | UZNU |
| Time | Latitude | Longitude | Altitude | Speed | Heading |
|---|---|---|---|---|---|
| 2026-04-25 08:40 | 41.25158 | 69.26343 | 1383 ft | 0 kts | 180° |
| 2026-04-25 09:07 | 41.25183 | 69.26344 | 1381 ft | 4 kts | 184° |
| 2026-04-25 09:07 | 41.25208 | 69.26347 | 1378 ft | 2 kts | 189° |
| 2026-04-25 09:08 | 41.25213 | 69.26349 | 1378 ft | 0 kts | 189° |
| 2026-04-25 09:11 | 41.25212 | 69.26348 | 1378 ft | 1 kts | 189° |
| 2026-04-25 09:11 | 41.25199 | 69.26363 | 1381 ft | 4 kts | 125° |
| 2026-04-25 09:12 | 41.25202 | 69.26398 | 1383 ft | 4 kts | 73° |
| 2026-04-25 09:12 | 41.25202 | 69.26445 | 1383 ft | 7 kts | 96° |
| 2026-04-25 09:12 | 41.25192 | 69.26517 | 1380 ft | 9 kts | 92° |
| 2026-04-25 09:12 | 41.25192 | 69.26605 | 1380 ft | 10 kts | 91° |
| 2026-04-25 09:13 | 41.25192 | 69.26709 | 1380 ft | 11 kts | 89° |
| 2026-04-25 09:13 | 41.25226 | 69.26744 | 1381 ft | 7 kts | 8° |
| 2026-04-25 09:13 | 41.25266 | 69.26779 | 1384 ft | 10 kts | 48° |
| 2026-04-25 09:13 | 41.25320 | 69.26865 | 1383 ft | 12 kts | 49° |
| 2026-04-25 09:14 | 41.25371 | 69.26954 | 1386 ft | 12 kts | 51° |
| 2026-04-25 09:14 | 41.25419 | 69.27027 | 1401 ft | 9 kts | 47° |
| 2026-04-25 09:14 | 41.25452 | 69.27077 | 1400 ft | 9 kts | 52° |
| 2026-04-25 09:14 | 41.25505 | 69.27173 | 1403 ft | 14 kts | 51° |
| 2026-04-25 09:15 | 41.25558 | 69.27282 | 1410 ft | 15 kts | 70° |
| 2026-04-25 09:15 | 41.25581 | 69.27456 | 1411 ft | 26 kts | 82° |
| 2026-04-25 09:15 | 41.25612 | 69.27725 | 1405 ft | 31 kts | 82° |
| 2026-04-25 09:15 | 41.25642 | 69.28009 | 1407 ft | 32 kts | 82° |
| 2026-04-25 09:16 | 41.25676 | 69.28307 | 1405 ft | 33 kts | 82° |
| 2026-04-25 09:16 | 41.25708 | 69.28618 | 1410 ft | 35 kts | 82° |
| 2026-04-25 09:16 | 41.25746 | 69.28940 | 1403 ft | 36 kts | 81° |
| 2026-04-25 09:16 | 41.25781 | 69.29271 | 1411 ft | 36 kts | 82° |
| 2026-04-25 09:17 | 41.25859 | 69.29946 | 1406 ft | 38 kts | 80° |
| 2026-04-25 09:17 | 41.25888 | 69.30251 | 1403 ft | 22 kts | 83° |
| 2026-04-25 09:17 | 41.25916 | 69.30386 | 1408 ft | 11 kts | 40° |
| 2026-04-25 09:18 | 41.26004 | 69.30387 | 1404 ft | 16 kts | 349° |
| 2026-04-25 09:18 | 41.26076 | 69.30350 | 1408 ft | 10 kts | 310° |
| 2026-04-25 09:18 | 41.26082 | 69.30259 | 1404 ft | 12 kts | 261° |
| 2026-04-25 09:18 | 41.26041 | 69.29906 | 1406 ft | 71 kts | 262° |
| 2026-04-25 09:19 | 41.25940 | 69.28991 | 1403 ft | 126 kts | 262° |
| 2026-04-25 09:19 | 41.25791 | 69.27646 | 1416 ft | 167 kts | 261° |
| 2026-04-25 09:19 | 41.25650 | 69.26087 | 1904 ft | 170 kts | 261° |
| 2026-04-25 09:19 | 41.25480 | 69.24511 | 2536 ft | 171 kts | 259° |
| 2026-04-25 09:20 | 41.25292 | 69.22950 | 3185 ft | 174 kts | 259° |
| 2026-04-25 09:20 | 41.25096 | 69.21263 | 3506 ft | 196 kts | 258° |
| 2026-04-25 09:20 | 41.24877 | 69.19394 | 3790 ft | 219 kts | 258° |
| 2026-04-25 09:20 | 41.24622 | 69.17251 | 4004 ft | 248 kts | 259° |
| 2026-04-25 09:21 | 41.24367 | 69.15042 | 5036 ft | 238 kts | 259° |
| 2026-04-25 09:21 | 41.24115 | 69.12880 | 6008 ft | 236 kts | 259° |
| 2026-04-25 09:21 | 41.23868 | 69.10722 | 6764 ft | 239 kts | 260° |
| 2026-04-25 09:21 | 41.23641 | 69.08548 | 6950 ft | 236 kts | 262° |
| 2026-04-25 09:22 | 41.23398 | 69.06279 | 6996 ft | 259 kts | 261° |
| 2026-04-25 09:22 | 41.23132 | 69.03873 | 7004 ft | 266 kts | 261° |
| 2026-04-25 09:22 | 41.22858 | 69.01442 | 7002 ft | 266 kts | 261° |
| 2026-04-25 09:22 | 41.22580 | 68.99009 | 6992 ft | 266 kts | 261° |
| 2026-04-25 09:23 | 41.22299 | 68.96578 | 6997 ft | 266 kts | 261° |
| 2026-04-25 09:23 | 41.22014 | 68.94151 | 6995 ft | 266 kts | 260° |
| 2026-04-25 09:23 | 41.21730 | 68.91723 | 6989 ft | 266 kts | 261° |
| 2026-04-25 09:23 | 41.21452 | 68.89332 | 6993 ft | 266 kts | 261° |
| 2026-04-25 09:24 | 41.21207 | 68.86902 | 6989 ft | 266 kts | 267° |
| 2026-04-25 09:24 | 41.21336 | 68.84429 | 7279 ft | 272 kts | 275° |
| 2026-04-25 09:24 | 41.21549 | 68.81948 | 8201 ft | 270 kts | 275° |
| 2026-04-25 09:24 | 41.21751 | 68.79459 | 9077 ft | 271 kts | 275° |
| 2026-04-25 09:25 | 41.21947 | 68.76964 | 9917 ft | 273 kts | 275° |
| 2026-04-25 09:25 | 41.22146 | 68.74404 | 10392 ft | 288 kts | 275° |
| 2026-04-25 09:25 | 41.22359 | 68.71656 | 10570 ft | 311 kts | 275° |
| 2026-04-25 09:25 | 41.22591 | 68.68703 | 10790 ft | 330 kts | 275° |
| 2026-04-25 09:26 | 41.22834 | 68.65633 | 11346 ft | 337 kts | 275° |
| 2026-04-25 09:26 | 41.23082 | 68.62514 | 11986 ft | 342 kts | 275° |
| 2026-04-25 09:26 | 41.23334 | 68.59351 | 12630 ft | 346 kts | 275° |
| 2026-04-25 09:26 | 41.23583 | 68.56196 | 13248 ft | 351 kts | 275° |
| 2026-04-25 09:27 | 41.23837 | 68.52953 | 13863 ft | 355 kts | 275° |
| 2026-04-25 09:27 | 41.24092 | 68.49674 | 14418 ft | 359 kts | 275° |
| 2026-04-25 09:27 | 41.24349 | 68.46354 | 14977 ft | 362 kts | 275° |
| 2026-04-25 09:27 | 41.24606 | 68.43012 | 15537 ft | 365 kts | 275° |
| 2026-04-25 09:28 | 41.24864 | 68.39642 | 16094 ft | 369 kts | 275° |
| 2026-04-25 09:28 | 41.25126 | 68.36240 | 16649 ft | 372 kts | 275° |
| 2026-04-25 09:28 | 41.25391 | 68.32803 | 17225 ft | 375 kts | 275° |
| 2026-04-25 09:28 | 41.25655 | 68.29339 | 17802 ft | 379 kts | 275° |
| 2026-04-25 09:29 | 41.25921 | 68.25843 | 18379 ft | 382 kts | 275° |
| 2026-04-25 09:29 | 41.26185 | 68.22355 | 18901 ft | 385 kts | 275° |
| 2026-04-25 09:29 | 41.26450 | 68.18803 | 19455 ft | 388 kts | 275° |
| 2026-04-25 09:29 | 41.26717 | 68.15226 | 19900 ft | 390 kts | 275° |
| 2026-04-25 09:30 | 41.26983 | 68.11634 | 20018 ft | 390 kts | 275° |
| 2026-04-25 09:30 | 41.27249 | 68.08046 | 20045 ft | 390 kts | 275° |
| 2026-04-25 09:30 | 41.27514 | 68.04462 | 20046 ft | 390 kts | 275° |
| 2026-04-25 09:30 | 41.27776 | 68.00873 | 20044 ft | 389 kts | 275° |
| 2026-04-25 09:31 | 41.28037 | 67.97292 | 20033 ft | 389 kts | 275° |
| 2026-04-25 09:31 | 41.28310 | 67.93709 | 20032 ft | 389 kts | 277° |
| 2026-04-25 09:31 | 41.28832 | 67.90169 | 20289 ft | 393 kts | 281° |
| 2026-04-25 09:31 | 41.29400 | 67.86607 | 20895 ft | 395 kts | 281° |
| 2026-04-25 09:32 | 41.29963 | 67.83013 | 21440 ft | 397 kts | 281° |
| 2026-04-25 09:32 | 41.30976 | 67.76450 | 22349 ft | 401 kts | 281° |
| 2026-04-25 09:32 | 41.31538 | 67.72799 | 22824 ft | 404 kts | 281° |
| 2026-04-25 09:33 | 41.32102 | 67.69129 | 23292 ft | 406 kts | 281° |
| 2026-04-25 09:33 | 41.32672 | 67.65430 | 23726 ft | 408 kts | 281° |
| 2026-04-25 09:33 | 41.33245 | 67.61718 | 24107 ft | 410 kts | 281° |
| 2026-04-25 09:33 | 41.33811 | 67.58040 | 24483 ft | 412 kts | 281° |
| 2026-04-25 09:34 | 41.34389 | 67.54297 | 24867 ft | 413 kts | 281° |
| 2026-04-25 09:34 | 41.34965 | 67.50539 | 25227 ft | 415 kts | 281° |
| 2026-04-25 09:34 | 41.35538 | 67.46769 | 25593 ft | 416 kts | 281° |
| 2026-04-25 09:34 | 41.36111 | 67.42985 | 25958 ft | 418 kts | 281° |
| 2026-04-25 09:35 | 41.36688 | 67.39183 | 26323 ft | 420 kts | 281° |
| 2026-04-25 09:35 | 41.37268 | 67.35363 | 26685 ft | 421 kts | 281° |
| 2026-04-25 09:35 | 41.37849 | 67.31534 | 27041 ft | 423 kts | 281° |
| 2026-04-25 09:35 | 41.38430 | 67.27686 | 27395 ft | 425 kts | 281° |
| 2026-04-25 09:36 | 41.39012 | 67.23826 | 27743 ft | 426 kts | 281° |
| 2026-04-25 09:36 | 41.39595 | 67.19949 | 28087 ft | 428 kts | 281° |
| 2026-04-25 09:36 | 41.40177 | 67.16054 | 28424 ft | 429 kts | 280° |
| 2026-04-25 09:36 | 41.40754 | 67.12161 | 28892 ft | 428 kts | 280° |
| 2026-04-25 09:37 | 41.41320 | 67.08335 | 29399 ft | 426 kts | 280° |
| 2026-04-25 09:37 | 41.41895 | 67.04474 | 29907 ft | 424 kts | 280° |
| 2026-04-25 09:37 | 41.42469 | 67.00621 | 30348 ft | 423 kts | 280° |
| 2026-04-25 09:37 | 41.43040 | 66.96787 | 30763 ft | 421 kts | 280° |
| 2026-04-25 09:38 | 41.43608 | 66.92962 | 31179 ft | 420 kts | 280° |
| 2026-04-25 09:38 | 41.44170 | 66.89149 | 31595 ft | 419 kts | 280° |
| 2026-04-25 09:38 | 41.44728 | 66.85348 | 32022 ft | 417 kts | 280° |
| 2026-04-25 09:38 | 41.45283 | 66.81543 | 32447 ft | 416 kts | 280° |
| 2026-04-25 09:39 | 41.45834 | 66.77765 | 32875 ft | 415 kts | 280° |
| 2026-04-25 09:39 | 41.46382 | 66.73999 | 33302 ft | 413 kts | 280° |
| 2026-04-25 09:39 | 41.46924 | 66.70280 | 33730 ft | 412 kts | 280° |
| 2026-04-25 09:40 | 41.48012 | 66.62750 | 34003 ft | 418 kts | 280° |
| 2026-04-25 09:40 | 41.48559 | 66.58935 | 34000 ft | 420 kts | 280° |
| 2026-04-25 09:40 | 41.49687 | 66.51280 | 33999 ft | 421 kts | 281° |
| 2026-04-25 09:41 | 41.50823 | 66.43629 | 33996 ft | 420 kts | 281° |
| 2026-04-25 09:41 | 41.51955 | 66.35976 | 33990 ft | 420 kts | 280° |
| 2026-04-25 09:42 | 41.53069 | 66.28319 | 33992 ft | 420 kts | 280° |
| 2026-04-25 09:42 | 41.54173 | 66.20670 | 33990 ft | 420 kts | 280° |
| 2026-04-25 09:43 | 41.55278 | 66.13015 | 33987 ft | 419 kts | 280° |
| 2026-04-25 09:43 | 41.56380 | 66.05362 | 33989 ft | 419 kts | 280° |
| 2026-04-25 09:44 | 41.57474 | 65.97712 | 33988 ft | 419 kts | 280° |
| 2026-04-25 09:44 | 41.58549 | 65.90113 | 33986 ft | 419 kts | 280° |
| 2026-04-25 09:45 | 41.59629 | 65.82467 | 33981 ft | 419 kts | 280° |
| 2026-04-25 09:45 | 41.60703 | 65.74817 | 33980 ft | 419 kts | 280° |
| 2026-04-25 09:46 | 41.61777 | 65.67162 | 33979 ft | 419 kts | 280° |
| 2026-04-25 09:46 | 41.62839 | 65.59513 | 33974 ft | 419 kts | 280° |
| 2026-04-25 09:47 | 41.63903 | 65.51898 | 33975 ft | 418 kts | 280° |
| 2026-04-25 09:47 | 41.64962 | 65.44235 | 33974 ft | 418 kts | 280° |
| 2026-04-25 09:48 | 41.66007 | 65.36588 | 33975 ft | 418 kts | 280° |
| 2026-04-25 09:48 | 41.67043 | 65.28943 | 33971 ft | 417 kts | 279° |
| 2026-04-25 09:49 | 41.68074 | 65.21298 | 33976 ft | 417 kts | 279° |
| 2026-04-25 09:49 | 41.69099 | 65.13711 | 33978 ft | 416 kts | 279° |
| 2026-04-25 09:50 | 41.70121 | 65.06087 | 33980 ft | 416 kts | 279° |
| 2026-04-25 09:50 | 41.71143 | 64.98473 | 33978 ft | 415 kts | 279° |
| 2026-04-25 09:51 | 41.72154 | 64.90871 | 33975 ft | 415 kts | 279° |
| 2026-04-25 09:51 | 41.73153 | 64.83275 | 33975 ft | 414 kts | 279° |
| 2026-04-25 09:52 | 41.74149 | 64.75674 | 33972 ft | 414 kts | 279° |
| 2026-04-25 09:52 | 41.75134 | 64.68090 | 33974 ft | 414 kts | 279° |
| 2026-04-25 09:53 | 41.75918 | 64.60460 | 33975 ft | 413 kts | 270° |
| 2026-04-25 09:53 | 41.75708 | 64.52782 | 33968 ft | 412 kts | 268° |
| 2026-04-25 09:54 | 41.75480 | 64.45157 | 33965 ft | 412 kts | 268° |
| 2026-04-25 09:54 | 41.75259 | 64.37483 | 33959 ft | 412 kts | 268° |
| 2026-04-25 09:55 | 41.75035 | 64.29805 | 33961 ft | 412 kts | 268° |
| 2026-04-25 09:55 | 41.74796 | 64.22138 | 33959 ft | 412 kts | 268° |
| 2026-04-25 09:56 | 41.74546 | 64.14480 | 33953 ft | 412 kts | 268° |
| 2026-04-25 09:56 | 41.74296 | 64.06826 | 33953 ft | 411 kts | 268° |
| 2026-04-25 09:57 | 41.74042 | 63.99172 | 33949 ft | 411 kts | 268° |
| 2026-04-25 09:57 | 41.73781 | 63.91531 | 33946 ft | 411 kts | 268° |
| 2026-04-25 09:58 | 41.73514 | 63.83892 | 33946 ft | 411 kts | 268° |
| 2026-04-25 09:58 | 41.73248 | 63.76258 | 33947 ft | 410 kts | 268° |
| 2026-04-25 09:59 | 41.72975 | 63.68630 | 33945 ft | 410 kts | 268° |
| 2026-04-25 09:59 | 41.72697 | 63.61060 | 33944 ft | 410 kts | 268° |
| 2026-04-25 10:00 | 41.72410 | 63.53444 | 33952 ft | 409 kts | 268° |
| 2026-04-25 10:00 | 41.72120 | 63.45832 | 33948 ft | 409 kts | 268° |
| 2026-04-25 10:01 | 41.71828 | 63.38242 | 33952 ft | 408 kts | 268° |
| 2026-04-25 10:01 | 41.71525 | 63.30671 | 33949 ft | 407 kts | 268° |
| 2026-04-25 10:02 | 41.71231 | 63.23143 | 33954 ft | 406 kts | 268° |
| 2026-04-25 10:02 | 41.70931 | 63.15606 | 33959 ft | 405 kts | 268° |
| 2026-04-25 10:03 | 41.70616 | 63.08071 | 33961 ft | 404 kts | 268° |
| 2026-04-25 10:03 | 41.70294 | 63.00565 | 33957 ft | 404 kts | 268° |
| 2026-04-25 10:04 | 41.69978 | 62.93105 | 33952 ft | 403 kts | 268° |
| 2026-04-25 10:04 | 41.69662 | 62.85627 | 33960 ft | 402 kts | 268° |
| 2026-04-25 10:05 | 41.69333 | 62.78161 | 33680 ft | 401 kts | 268° |
| 2026-04-25 10:05 | 41.69168 | 62.74438 | 33410 ft | 400 kts | 268° |
| 2026-04-25 10:05 | 41.69004 | 62.70720 | 33140 ft | 401 kts | 268° |
| 2026-04-25 10:06 | 41.68839 | 62.66998 | 32875 ft | 401 kts | 268° |
| 2026-04-25 10:06 | 41.68673 | 62.63276 | 32465 ft | 401 kts | 268° |
| 2026-04-25 10:06 | 41.68503 | 62.59529 | 31585 ft | 404 kts | 268° |
| 2026-04-25 10:06 | 41.68331 | 62.55780 | 30828 ft | 404 kts | 268° |
| 2026-04-25 10:07 | 41.68157 | 62.52066 | 29934 ft | 406 kts | 268° |
| 2026-04-25 10:07 | 41.67983 | 62.48286 | 29069 ft | 406 kts | 267° |
| 2026-04-25 10:07 | 41.67810 | 62.44557 | 28621 ft | 397 kts | 267° |
| 2026-04-25 10:07 | 41.67640 | 62.40898 | 28049 ft | 392 kts | 267° |
| 2026-04-25 10:08 | 41.67469 | 62.37286 | 27495 ft | 387 kts | 267° |
| 2026-04-25 10:08 | 41.67298 | 62.33715 | 26940 ft | 383 kts | 267° |
| 2026-04-25 10:08 | 41.67127 | 62.30185 | 26406 ft | 379 kts | 267° |
| 2026-04-25 10:08 | 41.66955 | 62.26674 | 25860 ft | 375 kts | 267° |
| 2026-04-25 10:09 | 41.66786 | 62.23200 | 25327 ft | 373 kts | 266° |
| 2026-04-25 10:09 | 41.66617 | 62.19750 | 24800 ft | 371 kts | 266° |
| 2026-04-25 10:09 | 41.66448 | 62.16319 | 24279 ft | 370 kts | 266° |
| 2026-04-25 10:09 | 41.66281 | 62.12893 | 23750 ft | 369 kts | 266° |
| 2026-04-25 10:10 | 41.66113 | 62.09511 | 23180 ft | 369 kts | 266° |
| 2026-04-25 10:10 | 41.65941 | 62.06094 | 22644 ft | 367 kts | 266° |
| 2026-04-25 10:10 | 41.65768 | 62.02694 | 22144 ft | 365 kts | 266° |
| 2026-04-25 10:10 | 41.65597 | 61.99316 | 21644 ft | 363 kts | 266° |
| 2026-04-25 10:11 | 41.65427 | 61.95954 | 21172 ft | 361 kts | 266° |
| 2026-04-25 10:11 | 41.65259 | 61.92620 | 20694 ft | 359 kts | 266° |
| 2026-04-25 10:11 | 41.65089 | 61.89308 | 20253 ft | 356 kts | 266° |
| 2026-04-25 10:11 | 41.64918 | 61.86061 | 19807 ft | 353 kts | 265° |
| 2026-04-25 10:12 | 41.64741 | 61.82799 | 19361 ft | 350 kts | 265° |
| 2026-04-25 10:12 | 41.64567 | 61.79568 | 18917 ft | 347 kts | 265° |
| 2026-04-25 10:12 | 41.63829 | 61.73255 | 17895 ft | 344 kts | 252° |
| 2026-04-25 10:13 | 41.62983 | 61.70269 | 17358 ft | 342 kts | 250° |
| 2026-04-25 10:13 | 41.62129 | 61.67314 | 16854 ft | 340 kts | 249° |
| 2026-04-25 10:13 | 41.61280 | 61.64366 | 16330 ft | 339 kts | 249° |
| 2026-04-25 10:13 | 41.60437 | 61.61428 | 15792 ft | 338 kts | 249° |
| 2026-04-25 10:14 | 41.59596 | 61.58506 | 15241 ft | 337 kts | 249° |
| 2026-04-25 10:14 | 41.58764 | 61.55614 | 14711 ft | 336 kts | 249° |
| 2026-04-25 10:14 | 41.57927 | 61.52705 | 14234 ft | 334 kts | 249° |
| 2026-04-25 10:14 | 41.57091 | 61.49813 | 13697 ft | 334 kts | 248° |
| 2026-04-25 10:15 | 41.56253 | 61.46919 | 13104 ft | 333 kts | 248° |
| 2026-04-25 10:15 | 41.55421 | 61.44045 | 12557 ft | 331 kts | 248° |
| 2026-04-25 10:15 | 41.54870 | 61.42148 | 12194 ft | 330 kts | 248° |
| 2026-04-25 10:15 | 41.53763 | 61.38343 | 11455 ft | 328 kts | 248° |
| 2026-04-25 10:16 | 41.53218 | 61.36468 | 11096 ft | 327 kts | 248° |
| 2026-04-25 10:16 | 41.52398 | 61.33653 | 10664 ft | 322 kts | 248° |
| 2026-04-25 10:16 | 41.51604 | 61.30932 | 10541 ft | 308 kts | 248° |
| 2026-04-25 10:16 | 41.50846 | 61.28326 | 10425 ft | 296 kts | 248° |
| 2026-04-25 10:17 | 41.50117 | 61.25819 | 10307 ft | 285 kts | 247° |
| 2026-04-25 10:17 | 41.49413 | 61.23400 | 10166 ft | 275 kts | 247° |
| 2026-04-25 10:17 | 41.48509 | 61.20302 | 10004 ft | 268 kts | 247° |
| 2026-04-25 10:17 | 41.48051 | 61.18736 | 9968 ft | 268 kts | 247° |
| 2026-04-25 10:18 | 41.47367 | 61.16402 | 9517 ft | 271 kts | 247° |
| 2026-04-25 10:18 | 41.46683 | 61.14065 | 8914 ft | 271 kts | 247° |
| 2026-04-25 10:18 | 41.45996 | 61.11719 | 8344 ft | 272 kts | 247° |
| 2026-04-25 10:18 | 41.45316 | 61.09397 | 7840 ft | 272 kts | 247° |
| 2026-04-25 10:19 | 41.44625 | 61.07043 | 7353 ft | 271 kts | 247° |
| 2026-04-25 10:19 | 41.43936 | 61.04694 | 6728 ft | 271 kts | 247° |
| 2026-04-25 10:19 | 41.43249 | 61.02360 | 6127 ft | 271 kts | 247° |
| 2026-04-25 10:19 | 41.42562 | 61.00032 | 5589 ft | 268 kts | 246° |
| 2026-04-25 10:20 | 41.41879 | 60.97727 | 5018 ft | 267 kts | 246° |
| 2026-04-25 10:20 | 41.41278 | 60.95405 | 4566 ft | 262 kts | 257° |
| 2026-04-25 10:20 | 41.41189 | 60.93034 | 4514 ft | 257 kts | 274° |
| 2026-04-25 10:20 | 41.41553 | 60.90707 | 4447 ft | 256 kts | 280° |
| 2026-04-25 10:21 | 41.41962 | 60.88428 | 4346 ft | 256 kts | 280° |
| 2026-04-25 10:21 | 41.42375 | 60.86112 | 4232 ft | 256 kts | 280° |
| 2026-04-25 10:21 | 41.42776 | 60.83847 | 4120 ft | 247 kts | 280° |
| 2026-04-25 10:21 | 41.43345 | 60.81676 | 3804 ft | 253 kts | 298° |
| 2026-04-25 10:22 | 41.44518 | 60.79907 | 3493 ft | 258 kts | 316° |
| 2026-04-25 10:22 | 41.45875 | 60.78384 | 3149 ft | 250 kts | 317° |
| 2026-04-25 10:22 | 41.47182 | 60.76921 | 2849 ft | 241 kts | 316° |
| 2026-04-25 10:22 | 41.48439 | 60.75500 | 2540 ft | 232 kts | 316° |
| 2026-04-25 10:23 | 41.49657 | 60.74120 | 2244 ft | 226 kts | 315° |
| 2026-04-25 10:23 | 41.50836 | 60.72785 | 1988 ft | 218 kts | 315° |
| 2026-04-25 10:23 | 41.51967 | 60.71504 | 1690 ft | 209 kts | 315° |
| 2026-04-25 10:23 | 41.53033 | 60.70292 | 1418 ft | 198 kts | 316° |
| 2026-04-25 10:24 | 41.54046 | 60.69145 | 1169 ft | 184 kts | 316° |
| 2026-04-25 10:24 | 41.54956 | 60.68115 | 955 ft | 159 kts | 315° |
| 2026-04-25 10:24 | 41.55754 | 60.67209 | 748 ft | 144 kts | 312° |
| 2026-04-25 10:24 | 41.56501 | 60.66360 | 570 ft | 139 kts | 314° |
| 2026-04-25 10:25 | 41.57242 | 60.65519 | 381 ft | 140 kts | 313° |
| 2026-04-25 10:25 | 41.57940 | 60.64739 | 327 ft | 115 kts | 312° |
| 2026-04-25 10:25 | 41.58416 | 60.64174 | 325 ft | 67 kts | 323° |
| 2026-04-25 10:25 | 41.58674 | 60.63884 | 327 ft | 39 kts | 318° |
| 2026-04-25 10:26 | 41.58760 | 60.63743 | 326 ft | 10 kts | 247° |
| 2026-04-25 10:26 | 41.58737 | 60.63708 | 326 ft | 11 kts | 227° |
| 2026-04-25 10:26 | 41.58698 | 60.63651 | 326 ft | 8 kts | 227° |
| 2026-04-25 10:26 | 41.58662 | 60.63595 | 325 ft | 8 kts | 231° |
| 2026-04-25 10:27 | 41.58623 | 60.63533 | 328 ft | 6 kts | 230° |
| 2026-04-25 10:27 | 41.58622 | 60.63531 | 325 ft | 0 kts | 230° |
| 2026-04-25 10:27 | 41.58621 | 60.63530 | 325 ft | 0 kts | 229° |
| 2026-04-25 10:28 | 41.58612 | 60.63518 | 326 ft | 3 kts | 217° |
| 2026-04-25 10:29 | 41.58586 | 60.63527 | 327 ft | 5 kts | 150° |
| 2026-04-25 10:29 | 41.58554 | 60.63559 | 328 ft | 5 kts | 152° |
| 2026-04-25 10:29 | 41.58519 | 60.63545 | 328 ft | 6 kts | 217° |
| 2026-04-25 10:29 | 41.58507 | 60.63508 | 325 ft | 2 kts | 296° |
| 2026-04-25 10:30 | 41.58517 | 60.63501 | 328 ft | 3 kts | 330° |
| 2026-04-25 10:30 | 41.58534 | 60.63487 | 326 ft | 3 kts | 326° |
| 2026-04-25 10:30 | 41.58545 | 60.63475 | 327 ft | 0 kts | 320° |